Time;durP1;ratioP1;P1;durP2;ratioP2;P2;SDS_P1;SDS_P2;PMS_P1;PMS_P2;Temp;Humidity;BMP_temperature;BMP_pressure;BME280_temperature;BME280_humidity;BME280_pressure;Samples;Min_cycle;Max_cycle;Signal;HPM_P1;HPM_P2
2023/03/24 00:00:30;;;;;;;2.20;2.00;;;;;;;9.08;75.24;97321.00;1704803;75;688374;-71
2023/03/24 00:03:01;;;;;;;2.10;1.90;;;;;;;9.00;76.54;97315.19;1713096;75;631034;-72
2023/03/24 00:05:31;;;;;;;2.55;2.15;;;;;;;8.92;77.62;97312.09;1704785;75;688078;-72
2023/03/24 00:08:04;;;;;;;3.10;2.30;;;;;;;8.85;78.21;97307.03;1712907;75;631041;-73
2023/03/24 00:10:35;;;;;;;2.65;2.35;;;;;;;8.87;77.70;97309.25;1704597;75;691723;-73
2023/03/24 00:13:07;;;;;;;2.45;2.15;;;;;;;8.81;78.58;97311.91;1712868;75;631026;-71
2023/03/24 00:15:37;;;;;;;3.00;2.65;;;;;;;8.73;78.72;97313.50;1704725;75;689995;-73
2023/03/24 00:18:09;;;;;;;3.50;2.90;;;;;;;8.67;79.27;97310.69;1712681;75;631113;-70
2023/03/24 00:20:41;;;;;;;3.20;2.90;;;;;;;8.75;79.20;97308.34;1704867;75;689845;-71
2023/03/24 00:23:14;;;;;;;3.10;2.40;;;;;;;8.75;78.40;97300.16;1712611;75;631004;-71
2023/03/24 00:25:44;;;;;;;2.30;1.90;;;;;;;8.81;78.19;97297.53;1704688;75;689820;-71
2023/03/24 00:28:15;;;;;;;3.40;2.10;;;;;;;8.78;78.10;97301.94;1713001;75;631372;-71
2023/03/24 00:30:50;;;;;;;3.55;3.00;;;;;;;8.66;79.51;97305.69;1704566;75;689826;-71
2023/03/24 00:33:21;;;;;;;2.90;2.60;;;;;;;8.66;79.08;97292.81;1707170;75;631302;-71
2023/03/24 00:35:51;;;;;;;2.70;2.30;;;;;;;8.68;77.21;97304.03;1712590;75;631933;-72
2023/03/24 00:38:24;;;;;;;2.80;2.50;;;;;;;8.66;77.52;97298.28;1705353;75;630972;-71
2023/03/24 00:40:55;;;;;;;2.40;2.10;;;;;;;8.65;78.11;97290.56;1712315;75;630982;-72
2023/03/24 00:43:25;;;;;;;2.70;2.10;;;;;;;8.56;79.43;97294.13;1705082;75;630972;-69
2023/03/24 00:46:01;;;;;;;4.20;3.30;;;;;;;8.44;80.24;97292.44;1713020;75;631002;-70
2023/03/24 00:48:33;;;;;;;3.80;2.70;;;;;;;8.48;79.22;97288.31;1704444;75;630977;-75
2023/03/24 00:51:06;;;;;;;3.00;2.60;;;;;;;8.50;79.17;97285.09;1712862;75;631077;-71
2023/03/24 00:53:42;;;;;;;2.40;2.20;;;;;;;8.45;79.42;97278.34;1705369;75;631070;-74
2023/03/24 00:56:14;;;;;;;2.10;1.90;;;;;;;8.41;79.49;97280.50;1712634;75;631010;-69
2023/03/24 00:58:44;;;;;;;2.70;2.40;;;;;;;8.38;79.65;97284.13;1705445;75;632005;-72
2023/03/24 01:01:15;;;;;;;2.40;2.20;;;;;;;8.35;79.67;97276.16;1712689;75;631007;-72
2023/03/24 01:03:49;;;;;;;2.10;1.90;;;;;;;8.30;80.49;97266.66;1705158;75;689690;-73
2023/03/24 01:06:21;;;;;;;2.20;2.00;;;;;;;8.30;80.95;97266.66;1713129;75;630999;-71
2023/03/24 01:08:55;;;;;;;2.25;2.00;;;;;;;8.30;80.37;97261.19;1705166;75;687974;-72
2023/03/24 01:11:30;;;;;;;2.80;2.30;;;;;;;8.21;80.52;97264.00;1712792;75;630983;-70
2023/03/24 01:14:00;;;;;;;2.75;2.00;;;;;;;8.21;80.13;97269.47;1705129;75;690991;-72
2023/03/24 01:16:30;;;;;;;3.10;2.30;;;;;;;8.18;80.31;97254.78;1713103;75;630971;-71
2023/03/24 01:19:00;;;;;;;3.10;2.10;;;;;;;8.19;80.11;97264.47;1704924;75;687192;-71
2023/03/24 01:21:31;;;;;;;2.30;1.90;;;;;;;8.13;81.53;97262.84;1712828;75;631027;-70
2023/03/24 01:24:04;;;;;;;1.80;1.70;;;;;;;8.16;80.05;97259.22;1704908;75;689714;-74
2023/03/24 01:26:34;;;;;;;2.35;2.10;;;;;;;8.14;79.47;97253.47;1712498;75;630968;-71
2023/03/24 01:29:05;;;;;;;2.40;2.00;;;;;;;8.15;80.15;97250.25;1704905;75;690883;-73
2023/03/24 01:31:35;;;;;;;2.20;2.00;;;;;;;8.13;80.83;97251.94;1713313;75;630991;-71
2023/03/24 01:34:06;;;;;;;2.70;2.10;;;;;;;8.03;80.86;97248.56;1705011;75;686821;-72
2023/03/24 01:36:36;;;;;;;2.10;1.90;;;;;;;8.01;81.17;97237.38;1713279;75;631221;-71
2023/03/24 01:39:09;;;;;;;2.40;1.90;;;;;;;7.94;80.75;97240.47;1704861;75;689826;-71
2023/03/24 01:41:42;;;;;;;2.55;2.30;;;;;;;7.96;82.29;97243.47;1712360;75;630975;-71
2023/03/24 01:44:33;;;;;;;2.60;2.30;;;;;;;7.89;82.30;97241.88;1705082;75;689907;-73
2023/03/24 01:47:05;;;;;;;2.25;1.90;;;;;;;7.92;81.80;97232.03;1705222;75;630988;-72
2023/03/24 01:49:40;;;;;;;3.80;2.45;;;;;;;7.89;81.71;97239.91;1712956;75;630991;-71
2023/03/24 01:52:16;;;;;;;3.50;2.60;;;;;;;7.82;83.42;97243.00;1705120;75;631091;-71
2023/03/24 01:54:52;;;;;;;3.00;2.70;;;;;;;7.68;83.20;97247.19;1712712;75;631333;-71
2023/03/24 01:57:27;;;;;;;3.25;2.60;;;;;;;7.74;83.11;97241.84;1704950;75;689868;-72
2023/03/24 02:00:03;;;;;;;2.60;2.30;;;;;;;7.78;83.20;97231.50;1713019;75;630928;-70
2023/03/24 02:02:35;;;;;;;2.65;2.30;;;;;;;7.77;82.27;97235.47;1704757;75;690865;-70
2023/03/24 02:05:09;;;;;;;2.90;2.10;;;;;;;7.68;83.35;97241.00;1712901;75;631035;-72
2023/03/24 02:07:45;;;;;;;2.25;2.05;;;;;;;7.63;82.42;97234.22;1705081;75;688957;-70
2023/03/24 02:10:22;;;;;;;2.30;2.10;;;;;;;7.66;83.05;97244.16;1705468;75;630931;-71
2023/03/24 02:12:52;;;;;;;3.50;2.90;;;;;;;7.58;82.70;97237.59;1713094;75;630947;-71
2023/03/24 02:15:23;;;;;;;3.00;2.70;;;;;;;7.59;83.83;97233.63;1705017;75;630993;-71
2023/03/24 02:18:12;;;;;;;2.80;2.30;;;;;;;7.57;83.56;97246.94;1712839;75;631058;-71
2023/03/24 02:21:35;;;;;;;2.45;2.10;;;;;;;7.56;83.03;97237.28;1704911;75;688940;-73
2023/03/24 02:25:10;;;;;;;2.20;2.00;;;;;;;7.58;81.52;97234.13;1704030;75;689826;-73
2023/03/24 02:28:21;;;;;;;2.40;2.10;;;;;;;7.52;82.62;97225.81;1704582;75;690896;-70
2023/03/24 02:31:27;;;;;;;3.70;2.55;;;;;;;7.47;83.52;97229.19;1704606;75;691968;-72
2023/03/24 02:34:43;;;;;;;2.75;2.45;;;;;;;7.42;84.23;97227.09;1704772;75;690767;-71
2023/03/24 02:38:12;;;;;;;2.45;2.05;;;;;;;7.49;83.74;97228.72;1704660;75;689938;-71
2023/03/24 02:40:51;;;;;;;2.25;2.05;;;;;;;7.45;84.20;97226.16;1703709;75;689632;-72
2023/03/24 02:43:40;;;;;;;4.50;3.20;;;;;;;7.31;85.79;97218.69;1705087;75;632030;-71
2023/03/24 02:46:20;;;;;;;4.30;2.70;;;;;;;7.30;85.66;97207.06;1712785;75;631077;-71
2023/03/24 02:49:10;;;;;;;2.40;2.20;;;;;;;7.35;85.67;97205.66;1704652;75;690841;-72
2023/03/24 02:51:51;;;;;;;2.70;2.30;;;;;;;7.40;85.27;97191.41;1705285;75;630937;-70
2023/03/24 02:54:29;;;;;;;2.40;2.10;;;;;;;7.42;84.69;97191.69;1712793;75;630935;-72
2023/03/24 02:57:10;;;;;;;2.40;2.20;;;;;;;7.45;84.79;97188.03;1704556;75;688314;-72
2023/03/24 02:59:47;;;;;;;2.70;2.30;;;;;;;7.42;85.12;97184.28;1705486;75;632931;-72
2023/03/24 03:02:21;;;;;;;2.30;2.00;;;;;;;7.46;85.11;97182.13;1712752;75;631057;-70
2023/03/24 03:04:57;;;;;;;1.90;1.80;;;;;;;7.49;84.74;97177.72;1705156;75;630968;-71
2023/03/24 03:07:36;;;;;;;2.20;2.00;;;;;;;7.44;86.22;97181.09;1712724;75;633073;-69
2023/03/24 03:10:13;;;;;;;5.30;3.90;;;;;;;7.46;86.40;97182.13;1704553;75;690807;-71
2023/03/24 03:12:48;;;;;;;;;;;;;;;7.49;86.22;97179.69;1705450;75;630991;-73
2023/03/24 03:15:24;;;;;;;3.30;2.70;;;;;;;7.53;86.45;97181.03;1712716;75;631581;-72
2023/03/24 03:18:01;;;;;;;2.50;2.30;;;;;;;7.53;86.48;97178.31;1705251;75;631471;-70
2023/03/24 03:20:37;;;;;;;2.20;2.00;;;;;;;7.59;85.96;97175.69;1712337;75;630980;-71
2023/03/24 03:23:12;;;;;;;2.65;1.80;;;;;;;7.57;86.08;97178.84;1704838;75;691983;-71
2023/03/24 03:25:49;;;;;;;2.50;2.30;;;;;;;7.45;86.82;97175.16;1712748;75;630914;-73
2023/03/24 03:28:28;;;;;;;3.60;2.90;;;;;;;7.46;86.79;97187.59;1704731;75;690849;-71
2023/03/24 03:31:06;;;;;;;2.90;2.60;;;;;;;7.52;86.14;97178.75;1705608;75;631014;-71
2023/03/24 03:33:42;;;;;;;2.40;2.10;;;;;;;7.56;86.58;97174.66;1712928;75;630968;-74
2023/03/24 03:36:24;;;;;;;2.90;2.60;;;;;;;7.57;85.10;97167.22;1705195;75;631909;-74
2023/03/24 03:39:03;;;;;;;2.35;2.00;;;;;;;7.57;84.98;97162.50;1711745;75;630977;-71
2023/03/24 03:41:33;;;;;;;2.20;2.00;;;;;;;7.60;85.10;97169.00;1712900;75;630976;-72
2023/03/24 03:44:06;;;;;;;2.00;1.80;;;;;;;7.57;85.79;97161.78;1705320;75;631455;-71
2023/03/24 03:46:38;;;;;;;2.60;2.00;;;;;;;7.56;85.59;97160.28;1712417;75;631322;-75
2023/03/24 03:49:10;;;;;;;2.20;2.00;;;;;;;7.55;84.61;97156.81;1704974;75;630972;-72
2023/03/24 03:51:41;;;;;;;2.70;2.20;;;;;;;7.55;85.59;97162.25;1712780;75;630955;-70
2023/03/24 03:54:16;;;;;;;2.50;2.10;;;;;;;7.50;86.59;97159.41;1704479;75;630978;-74
2023/03/24 03:56:48;;;;;;;2.40;1.90;;;;;;;7.51;85.36;97158.94;1712898;75;631055;-74
2023/03/24 03:59:35;;;;;;;2.40;2.00;;;;;;;7.47;85.82;97152.94;1705321;75;630918;-72
2023/03/24 04:02:20;;;;;;;3.00;2.60;;;;;;;7.40;86.07;97164.19;1705120;75;630979;-70
2023/03/24 04:05:15;;;;;;;2.50;2.20;;;;;;;7.41;86.13;97162.97;1712764;75;630931;-71
2023/03/24 04:08:19;;;;;;;3.50;3.00;;;;;;;7.35;86.70;97157.41;1704790;75;690916;-71
2023/03/24 04:11:31;;;;;;;3.80;3.30;;;;;;;7.34;87.51;97164.09;1704169;75;691721;-71
2023/03/24 04:14:26;;;;;;;3.25;2.70;;;;;;;7.33;86.04;97150.91;1704486;75;690858;-72
2023/03/24 04:17:11;;;;;;;3.85;2.95;;;;;;;7.35;86.70;97149.22;1704725;75;631087;-70
2023/03/24 04:19:59;;;;;;;3.10;2.70;;;;;;;7.32;86.69;97146.72;1704848;75;630968;-71
2023/03/24 04:22:39;;;;;;;;;;;;;;;7.28;87.08;97135.97;1712717;75;631056;-72
2023/03/24 04:25:18;;;;;;;3.25;2.70;;;;;;;7.32;87.17;97130.38;1704577;75;690869;-71
2023/03/24 04:27:59;;;;;;;2.70;2.50;;;;;;;7.33;86.50;97127.16;1704962;75;631330;-72
2023/03/24 04:30:39;;;;;;;3.30;2.40;;;;;;;7.38;87.38;97117.59;1712719;75;631642;-73
2023/03/24 04:33:21;;;;;;;3.05;2.70;;;;;;;7.40;86.61;97120.59;1705441;75;640648;-71
2023/03/24 04:35:57;;;;;;;3.10;2.60;;;;;;;7.41;86.39;97133.78;1705272;75;631027;-71
2023/03/24 04:38:31;;;;;;;4.20;2.80;;;;;;;7.36;87.13;97126.25;1712870;75;632038;-72
2023/03/24 04:41:02;;;;;;;3.20;2.40;;;;;;;7.34;87.04;97131.41;1705930;75;631890;-72
2023/03/24 04:43:37;;;;;;;3.10;2.80;;;;;;;7.31;87.13;97134.28;1712625;75;630988;-72
2023/03/24 04:46:09;;;;;;;3.40;3.10;;;;;;;7.30;88.30;97138.25;1705720;75;631969;-71
2023/03/24 04:48:43;;;;;;;4.70;4.20;;;;;;;7.27;89.24;97137.22;1713386;75;631066;-71
2023/03/24 04:51:14;;;;;;;5.05;4.55;;;;;;;7.19;89.30;97145.00;1706224;75;687109;-73
2023/03/24 04:53:44;;;;;;;5.75;4.80;;;;;;;7.23;89.62;97131.19;1713678;75;631027;-76
2023/03/24 04:56:35;;;;;;;5.60;5.00;;;;;;;7.25;89.79;97128.75;1706099;75;690775;-76
2023/03/24 04:59:05;;;;;;;4.80;4.30;;;;;;;7.26;89.29;97135.69;1706528;75;631027;-73
2023/03/24 05:01:36;;;;;;;3.40;3.10;;;;;;;7.34;88.94;97141.56;1714517;75;631960;-72
2023/03/24 05:04:10;;;;;;;4.80;4.30;;;;;;;7.34;89.11;97147.00;1706973;75;631353;-74
2023/03/24 05:06:40;;;;;;;6.10;5.50;;;;;;;7.21;89.44;97139.81;1714151;75;631074;-71
2023/03/24 05:09:11;;;;;;;5.40;4.20;;;;;;;7.26;89.46;97138.41;1706377;75;631019;-73
2023/03/24 05:11:41;;;;;;;6.55;5.50;;;;;;;7.15;90.43;97147.13;1714008;75;632121;-71
2023/03/24 05:14:12;;;;;;;7.75;6.95;;;;;;;7.13;91.32;97143.38;1706378;75;632020;-71
2023/03/24 05:16:42;;;;;;;9.80;7.80;;;;;;;7.15;91.52;97146.38;1714220;75;632015;-72
2023/03/24 05:19:15;;;;;;;8.55;7.65;;;;;;;7.16;91.69;97150.59;1706873;75;632033;-73
2023/03/24 05:21:46;;;;;;;7.95;7.15;;;;;;;7.13;92.57;97141.38;1713202;75;632065;-72
2023/03/24 05:24:16;;;;;;;7.85;7.05;;;;;;;7.14;92.41;97136.69;1705118;75;690856;-71
2023/03/24 05:26:46;;;;;;;6.35;5.75;;;;;;;7.23;91.04;97136.63;1713107;75;632015;-71
2023/03/24 05:29:16;;;;;;;5.65;4.80;;;;;;;7.36;90.38;97136.38;1705188;75;690830;-72
2023/03/24 05:31:46;;;;;;;4.35;3.70;;;;;;;7.38;90.27;97142.84;1713068;75;630998;-72
2023/03/24 05:34:19;;;;;;;4.40;3.95;;;;;;;7.43;89.67;97149.63;1705633;75;690917;-72
2023/03/24 05:36:49;;;;;;;4.00;3.60;;;;;;;7.38;90.27;97150.28;1713568;75;630987;-71
2023/03/24 05:39:20;;;;;;;4.95;4.20;;;;;;;7.43;90.28;97144.19;1705046;75;689784;-72
2023/03/24 05:41:50;;;;;;;4.30;3.90;;;;;;;7.51;89.81;97144.59;1713119;75;632039;-73
2023/03/24 05:44:20;;;;;;;3.50;3.20;;;;;;;7.61;89.25;97146.75;1705446;75;689860;-73
2023/03/24 05:46:51;;;;;;;5.90;3.70;;;;;;;7.67;88.51;97149.56;1713658;75;631945;-72
2023/03/24 05:49:23;;;;;;;4.00;3.50;;;;;;;7.72;88.33;97142.72;1705016;75;689900;-73
2023/03/24 05:51:54;;;;;;;3.50;3.10;;;;;;;7.79;89.11;97143.13;1712978;75;632006;-72
2023/03/24 05:54:24;;;;;;;3.95;3.55;;;;;;;7.86;88.84;97141.97;1705373;75;689618;-73
2023/03/24 05:56:54;;;;;;;3.80;3.35;;;;;;;7.89;88.52;97141.06;1713576;75;632025;-72
2023/03/24 05:59:25;;;;;;;3.90;3.50;;;;;;;7.98;89.23;97132.75;1705236;75;690947;-72
2023/03/24 06:01:57;;;;;;;3.80;3.40;;;;;;;8.06;88.84;97130.44;1713142;75;630987;-73
2023/03/24 06:04:31;;;;;;;3.30;2.95;;;;;;;8.21;88.29;97135.84;1705366;75;689816;-74
2023/03/24 06:07:02;;;;;;;3.50;2.85;;;;;;;8.33;87.69;97123.88;1713236;75;632094;-72
2023/03/24 06:09:34;;;;;;;3.55;3.15;;;;;;;8.36;88.17;97119.47;1705476;75;690809;-74
2023/03/24 06:12:05;;;;;;;3.30;3.00;;;;;;;8.47;88.57;97122.38;1713954;75;632091;-73
2023/03/24 06:14:35;;;;;;;3.90;3.50;;;;;;;8.52;88.05;97122.47;1705950;75;691957;-75
2023/03/24 06:17:05;;;;;;;5.10;4.60;;;;;;;8.50;87.44;97122.19;1713958;75;632006;-72
2023/03/24 06:19:39;;;;;;;4.35;3.95;;;;;;;8.68;86.61;97132.13;1705964;75;690909;-74
2023/03/24 06:22:10;;;;;;;5.30;4.40;;;;;;;8.72;85.93;97138.09;1713855;75;630982;-73
2023/03/24 06:24:40;;;;;;;5.45;4.90;;;;;;;8.77;86.70;97144.88;1705930;75;690898;-75
2023/03/24 06:27:11;;;;;;;7.90;6.50;;;;;;;8.90;85.33;97142.56;1713818;75;632081;-73
2023/03/24 06:29:41;;;;;;;6.25;4.60;;;;;;;9.12;84.22;97128.44;1706141;75;689827;-72
2023/03/24 06:32:12;;;;;;;4.60;4.10;;;;;;;9.23;83.86;97127.81;1713666;75;631995;-72
2023/03/24 06:34:44;;;;;;;5.00;4.50;;;;;;;9.29;84.02;97134.09;1705976;75;687378;-72
2023/03/24 06:37:15;;;;;;;7.70;6.40;;;;;;;9.30;83.58;97132.84;1713526;75;631542;-73
2023/03/24 06:39:45;;;;;;;6.90;6.20;;;;;;;9.44;83.57;97130.53;1705645;75;690893;-74
2023/03/24 06:42:16;;;;;;;5.95;5.10;;;;;;;9.59;83.84;97128.44;1714045;75;630991;-73
2023/03/24 06:44:46;;;;;;;6.65;5.95;;;;;;;9.60;82.84;97129.97;1705984;75;688576;-73
2023/03/24 06:47:16;;;;;;;8.25;7.10;;;;;;;9.64;83.00;97130.47;1713906;75;632017;-72
2023/03/24 06:49:49;;;;;;;8.25;6.80;;;;;;;9.72;83.21;97131.56;1705856;75;689847;-73
2023/03/24 06:52:19;;;;;;;7.60;6.80;;;;;;;9.77;82.35;97132.84;1713225;75;631995;-74
2023/03/24 06:54:50;;;;;;;5.90;5.30;;;;;;;9.91;81.68;97132.00;1705875;75;689782;-73
2023/03/24 06:57:20;;;;;;;5.80;5.20;;;;;;;10.00;81.67;97139.25;1713816;75;632025;-74
2023/03/24 06:59:52;;;;;;;6.70;6.05;;;;;;;10.07;80.79;97135.34;1705878;75;689881;-72
2023/03/24 07:02:22;;;;;;;6.90;5.90;;;;;;;10.17;80.14;97133.94;1713529;75;632038;-75
2023/03/24 07:04:55;;;;;;;6.15;5.25;;;;;;;10.33;79.65;97127.13;1705826;75;689913;-73
2023/03/24 07:07:25;;;;;;;4.85;4.35;;;;;;;10.55;78.96;97135.47;1712517;75;632012;-75
2023/03/24 07:09:55;;;;;;;4.75;4.35;;;;;;;10.62;78.63;97137.00;1705163;75;687951;-74
2023/03/24 07:12:26;;;;;;;9.45;7.85;;;;;;;10.71;78.43;97138.81;1712697;75;633078;-72
2023/03/24 07:14:57;;;;;;;7.95;6.50;;;;;;;10.89;77.78;97121.97;1705359;75;689867;-75
2023/03/24 07:17:27;;;;;;;4.85;4.35;;;;;;;11.23;76.30;97122.88;1713416;75;632063;-73
2023/03/24 07:20:00;;;;;;;8.20;7.25;;;;;;;11.25;75.63;97119.63;1705576;75;690459;-75
2023/03/24 07:22:30;;;;;;;5.40;4.90;;;;;;;11.66;75.22;97121.97;1713670;75;632444;-72
2023/03/24 07:25:03;;;;;;;4.40;4.00;;;;;;;11.98;74.24;97122.56;1705764;75;690884;-74
2023/03/24 07:27:34;;;;;;;4.50;4.10;;;;;;;12.20;72.63;97108.06;1713685;75;631981;-73
2023/03/24 07:30:04;;;;;;;4.25;3.85;;;;;;;12.51;71.57;97101.56;1705649;75;689869;-74
2023/03/24 07:32:37;;;;;;;3.50;3.20;;;;;;;12.83;70.65;97103.97;1713682;75;633079;-74
2023/03/24 07:35:13;;;;;;;3.55;3.05;;;;;;;13.07;69.20;97100.63;1706087;75;690881;-73
2023/03/24 07:37:43;;;;;;;3.90;3.50;;;;;;;13.32;69.04;97100.78;1708300;75;631005;-72
2023/03/24 07:40:16;;;;;;;3.40;3.10;;;;;;;13.53;67.16;97099.16;1712976;75;631970;-73
2023/03/24 07:42:47;;;;;;;3.85;3.45;;;;;;;13.54;66.63;97094.41;1706120;75;630994;-73
2023/03/24 07:45:17;;;;;;;4.10;3.70;;;;;;;13.68;67.25;97087.09;1713191;75;631973;-74
2023/03/24 07:47:49;;;;;;;7.50;6.70;;;;;;;13.53;66.65;97093.66;1705232;75;632062;-73
2023/03/24 07:50:22;;;;;;;7.00;5.90;;;;;;;13.79;65.75;97089.75;1713794;75;632061;-73
2023/03/24 07:52:53;;;;;;;8.00;5.30;;;;;;;13.99;65.00;97091.34;1706109;75;632496;-74
2023/03/24 07:55:23;;;;;;;8.05;6.75;;;;;;;14.05;64.76;97089.31;1713236;75;632038;-74
2023/03/24 07:57:54;;;;;;;7.40;5.90;;;;;;;14.21;63.06;97084.91;1706686;75;631850;-73
2023/03/24 08:00:25;;;;;;;6.80;5.70;;;;;;;14.16;62.96;97096.72;1714106;75;632041;-72
2023/03/24 08:02:56;;;;;;;6.90;5.30;;;;;;;14.20;62.56;97091.69;1706102;75;632119;-74
2023/03/24 08:05:31;;;;;;;6.60;5.20;;;;;;;14.27;61.60;97088.38;1714134;75;632041;-75
2023/03/24 08:08:03;;;;;;;8.10;7.30;;;;;;;14.03;63.49;97083.56;1705705;75;631014;-74
2023/03/24 08:10:35;;;;;;;10.10;7.70;;;;;;;14.32;64.61;97084.81;1712643;75;630993;-73
2023/03/24 08:13:05;;;;;;;11.80;8.60;;;;;;;14.14;64.39;97079.97;1706302;75;631999;-75
2023/03/24 08:15:36;;;;;;;11.60;7.90;;;;;;;14.38;63.99;97076.50;1713427;75;632006;-73
2023/03/24 08:18:07;;;;;;;9.90;7.60;;;;;;;14.42;63.71;97085.22;1706761;75;631981;-73
2023/03/24 08:20:39;;;;;;;9.30;7.60;;;;;;;14.40;63.53;97080.22;1714040;75;630996;-74
2023/03/24 08:23:10;;;;;;;8.20;7.15;;;;;;;14.57;64.07;97084.84;1706241;75;687146;-73
2023/03/24 08:25:40;;;;;;;10.70;8.70;;;;;;;14.63;63.70;97078.03;1714301;75;631929;-75
2023/03/24 08:28:10;;;;;;;11.25;7.80;;;;;;;14.62;62.26;97086.78;1706205;75;687848;-75
2023/03/24 08:30:42;;;;;;;8.65;6.80;;;;;;;14.82;62.20;97080.81;1714080;75;633071;-75
2023/03/24 08:33:16;;;;;;;8.00;5.95;;;;;;;15.03;60.67;97086.59;1706274;75;689753;-74
2023/03/24 08:35:50;;;;;;;7.70;6.10;;;;;;;15.09;60.90;97075.50;1713524;75;631303;-73
2023/03/24 08:38:21;;;;;;;8.35;6.35;;;;;;;15.22;59.62;97074.81;1706311;75;687232;-74
2023/03/24 08:40:53;;;;;;;6.50;5.10;;;;;;;15.47;58.96;97078.25;1714218;75;633067;-75
2023/03/24 08:43:24;;;;;;;6.75;5.05;;;;;;;15.48;60.30;97076.97;1706380;75;691026;-73
2023/03/24 08:45:54;;;;;;;5.90;4.60;;;;;;;15.83;58.65;97078.75;1713532;75;632042;-73
2023/03/24 08:48:24;;;;;;;4.15;3.60;;;;;;;16.12;58.04;97077.03;1706378;75;688046;-77
2023/03/24 08:50:58;;;;;;;4.15;3.60;;;;;;;16.25;57.41;97072.81;1713624;75;634073;-75
2023/03/24 08:53:28;;;;;;;6.30;4.95;;;;;;;16.10;56.71;97076.81;1706410;75;687872;-74
2023/03/24 08:55:58;;;;;;;6.75;4.25;;;;;;;16.37;56.00;97077.59;1713598;75;632026;-73
2023/03/24 08:58:29;;;;;;;3.90;3.55;;;;;;;16.56;55.71;97085.81;1706099;75;690917;-73
2023/03/24 09:00:59;;;;;;;3.80;3.30;;;;;;;16.66;55.03;97082.63;1714380;75;630983;-73
2023/03/24 09:03:30;;;;;;;4.10;3.00;;;;;;;16.93;54.33;97080.63;1706147;75;691985;-75
2023/03/24 09:06:03;;;;;;;7.70;6.00;;;;;;;16.29;55.20;97073.25;1713893;75;632115;-76
2023/03/24 09:08:34;;;;;;;11.65;7.60;;;;;;;16.21;56.05;97075.91;1706178;75;690914;-74
2023/03/24 09:11:04;;;;;;;11.00;8.10;;;;;;;16.22;55.98;97069.09;1714090;75;632017;-75
2023/03/24 09:13:35;;;;;;;6.25;4.80;;;;;;;16.88;54.54;97067.66;1706233;75;690892;-73
2023/03/24 09:16:06;;;;;;;10.10;7.80;;;;;;;16.41;54.66;97066.25;1713863;75;630979;-75
2023/03/24 09:18:36;;;;;;;7.60;6.40;;;;;;;17.12;54.00;97061.13;1706173;75;691982;-74
2023/03/24 09:21:10;;;;;;;6.30;4.70;;;;;;;17.64;51.60;97053.97;1714500;75;633067;-74
2023/03/24 09:23:40;;;;;;;8.70;5.70;;;;;;;17.75;50.20;97053.72;1706597;75;690890;-75
2023/03/24 09:26:11;;;;;;;7.35;6.10;;;;;;;17.74;48.83;97040.41;1714865;75;631564;-77
2023/03/24 09:28:41;;;;;;;7.60;6.20;;;;;;;18.21;48.77;97051.34;1707328;75;690215;-74
2023/03/24 09:31:11;;;;;;;7.20;5.25;;;;;;;18.73;47.54;97043.91;1715036;75;633016;-77
2023/03/24 09:33:41;;;;;;;8.30;4.95;;;;;;;19.11;45.36;97035.06;1706765;75;690985;-76
2023/03/24 09:36:15;;;;;;;5.40;4.50;;;;;;;19.54;45.25;97036.28;1714900;75;631883;-75
2023/03/24 09:38:45;;;;;;;5.20;4.20;;;;;;;20.27;41.80;97035.25;1706700;75;690739;-75
2023/03/24 09:41:21;;;;;;;5.50;4.45;;;;;;;20.02;42.15;97035.81;1714864;75;632088;-74
2023/03/24 09:43:56;;;;;;;4.15;3.45;;;;;;;20.87;40.80;97027.38;1706553;75;690956;-74
2023/03/24 09:46:35;;;;;;;4.70;3.90;;;;;;;20.95;39.07;97031.63;1707327;75;632928;-73
2023/03/24 09:49:06;;;;;;;5.90;5.00;;;;;;;20.95;38.51;97023.28;1714802;75;631875;-76
2023/03/24 09:51:44;;;;;;;6.50;4.20;;;;;;;20.86;39.53;97018.28;1706533;75;631945;-74
2023/03/24 09:54:35;;;;;;;4.30;3.20;;;;;;;21.11;38.96;97015.59;1714939;75;632053;-78
2023/03/24 09:57:13;;;;;;;4.05;3.10;;;;;;;20.75;38.92;97011.09;1706559;75;691967;-73
2023/03/24 09:59:44;;;;;;;4.20;2.80;;;;;;;21.00;39.27;97016.03;1707147;75;633551;-74
2023/03/24 10:02:18;;;;;;;3.70;3.00;;;;;;;21.01;40.16;97012.66;1713897;75;632092;-73
2023/03/24 10:04:49;;;;;;;5.05;3.45;;;;;;;21.35;38.89;97007.88;1706998;75;632003;-73
2023/03/24 10:07:27;;;;;;;4.20;2.90;;;;;;;21.55;38.87;97009.63;1714786;75;631933;-73
2023/03/24 10:10:02;;;;;;;4.25;3.25;;;;;;;21.84;37.44;97006.44;1706738;75;632933;-73
2023/03/24 10:12:41;;;;;;;3.95;2.80;;;;;;;22.13;37.25;97001.22;1714450;75;632013;-74
2023/03/24 10:15:22;;;;;;;4.75;4.15;;;;;;;22.04;36.56;96996.28;1706559;75;690866;-74
2023/03/24 10:18:03;;;;;;;5.30;3.45;;;;;;;22.26;35.67;96998.13;1707088;75;633056;-76
2023/03/24 10:20:41;;;;;;;5.35;4.10;;;;;;;22.01;36.12;96997.41;1714626;75;631913;-75
2023/03/24 10:23:29;;;;;;;5.60;4.20;;;;;;;22.09;36.38;96992.50;1706833;75;633059;-76
2023/03/24 10:26:09;;;;;;;5.15;3.55;;;;;;;21.79;36.96;96993.47;1706851;75;633039;-76
2023/03/24 10:28:49;;;;;;;4.90;4.05;;;;;;;21.51;37.15;96986.28;1714347;75;634105;-76
2023/03/24 10:31:27;;;;;;;4.40;3.40;;;;;;;21.89;36.97;96989.50;1706367;75;693321;-74
2023/03/24 10:33:58;;;;;;;3.80;2.90;;;;;;;22.02;37.31;96990.53;1707055;75;633041;-75
2023/03/24 10:36:30;;;;;;;5.20;3.00;;;;;;;22.36;36.35;96987.06;1713776;75;632034;-73
2023/03/24 10:39:03;;;;;;;5.10;3.70;;;;;;;22.16;35.93;96985.38;1706587;75;632940;-77
2023/03/24 10:41:38;;;;;;;4.50;3.70;;;;;;;22.41;36.92;96985.34;1714371;75;630994;-75
2023/03/24 10:44:09;;;;;;;6.10;3.30;;;;;;;22.51;36.62;96986.94;1706148;75;633051;-74
2023/03/24 10:46:47;;;;;;;7.30;3.60;;;;;;;22.67;35.82;96975.59;1714417;75;630907;-78
2023/03/24 10:49:25;;;;;;;5.70;4.70;;;;;;;22.71;35.82;96970.34;1706917;75;632099;-74
2023/03/24 10:52:00;;;;;;;;;;;;;;;22.89;34.62;96971.03;1708771;75;633039;-73
2023/03/24 10:54:34;;;;;;;5.60;4.40;;;;;;;22.90;34.11;96970.47;1714462;75;633019;-76
2023/03/24 10:57:17;;;;;;;4.10;3.40;;;;;;;23.13;33.97;96963.88;1706015;75;632020;-74
2023/03/24 10:59:57;;;;;;;5.35;3.85;;;;;;;23.38;33.74;96958.88;1713435;75;632010;-77
2023/03/24 11:02:29;;;;;;;5.20;3.80;;;;;;;23.21;34.41;96961.72;1706284;75;691743;-76
2023/03/24 11:05:04;;;;;;;5.10;3.50;;;;;;;23.15;34.42;96958.47;1714029;75;634226;-76
2023/03/24 11:07:37;;;;;;;5.05;4.25;;;;;;;23.17;35.13;96964.19;1706382;75;690770;-77
2023/03/24 11:10:20;;;;;;;5.50;4.40;;;;;;;22.96;35.01;96967.41;1713542;75;633040;-76
2023/03/24 11:13:06;;;;;;;3.95;3.35;;;;;;;23.33;34.75;96951.50;1706304;75;689270;-75
2023/03/24 11:15:38;;;;;;;3.80;2.50;;;;;;;23.49;33.63;96954.06;1706723;75;632872;-75
2023/03/24 11:18:19;;;;;;;5.70;4.00;;;;;;;23.44;33.36;96953.00;1714512;75;633030;-73
2023/03/24 11:20:55;;;;;;;5.25;3.40;;;;;;;23.77;33.99;96942.28;1707365;75;632043;-74
2023/03/24 11:23:33;;;;;;;7.30;3.75;;;;;;;23.64;33.06;96937.06;1711795;75;632932;-74
2023/03/24 11:26:16;;;;;;;;;;;;;;;23.60;33.61;96926.31;1714427;75;631974;-77
2023/03/24 11:28:53;;;;;;;3.40;3.00;;;;;;;23.36;33.27;96924.47;1706863;75;632021;-75
2023/03/24 11:31:29;;;;;;;;;;;;;;;23.16;33.58;96926.41;1713798;75;632054;-74
2023/03/24 11:34:02;;;;;;;5.15;4.15;;;;;;;22.72;34.05;96927.16;1706266;75;690603;-74
2023/03/24 11:36:52;;;;;;;5.70;4.20;;;;;;;22.41;34.50;96924.72;1713627;75;630982;-76
2023/03/24 11:39:26;;;;;;;5.35;3.65;;;;;;;22.50;34.29;96909.38;1706285;75;691934;-73
2023/03/24 11:42:21;;;;;;;4.80;2.70;;;;;;;22.75;34.05;96912.03;1714436;75;632011;-76
2023/03/24 11:44:55;;;;;;;2.90;1.95;;;;;;;22.76;34.16;96919.13;1706159;75;690953;-77
2023/03/24 11:47:32;;;;;;;5.40;3.20;;;;;;;22.70;34.26;96910.25;1714345;75;633016;-73
2023/03/24 11:50:19;;;;;;;2.80;2.40;;;;;;;22.72;34.72;96907.63;1706122;75;690910;-74
2023/03/24 11:52:55;;;;;;;6.10;4.55;;;;;;;22.22;34.75;96903.00;1706668;75;632963;-75
2023/03/24 11:55:37;;;;;;;6.60;4.00;;;;;;;22.11;35.34;96901.41;1714168;75;632030;-75
2023/03/24 11:58:23;;;;;;;3.95;3.05;;;;;;;22.17;35.16;96901.16;1706364;75;693014;-73
2023/03/24 12:01:00;;;;;;;7.50;4.20;;;;;;;21.92;35.59;96901.25;1706392;75;633136;-74
2023/03/24 12:03:55;;;;;;;;;;;;;;;21.95;35.76;96894.50;1713538;75;633104;-76
2023/03/24 12:06:43;;;;;;;4.40;2.50;;;;;;;22.22;35.33;96891.84;1706171;75;690896;-73
2023/03/24 12:09:30;;;;;;;3.20;2.40;;;;;;;22.33;35.34;96888.56;1706846;75;632963;-74